Avola, Canada
Current Conditions -  °F | °C
As of 12:00 AM on Friday 31 Oct 2014 (Local Time) from CYRV Reporting Station
Light Rain Light Rain  
Wind Chill: 45°   Ceiling: 1100
Heat Index: 45°   Visibility: 9mi
Dew Point: 45°   Wind: 2mph
Humidity: 100%   Direction: NA
Pressure: 29.87"   Gusts: NA
Location:  51.78°N, 119.32°W
Report Text: CYRV 310700Z AUTO VRB02KT 9SM -RA OVC011 07/07 A2987 RMK PCPN 0.5MM PAST HR SLP125
Loading
Personal Weather Stations






























Interactive Weather Map
Tropical Storm Tracking
New forecast layout! Learn more

10-Day Weather Forecast

Advertisements
Track Severe Weather on mobile